Time;durP1;ratioP1;P1;durP2;ratioP2;P2;SDS_P1;SDS_P2;PMS_P1;PMS_P2;Temp;Humidity;BMP_temperature;BMP_pressure;BME280_temperature;BME280_humidity;BME280_pressure;Samples;Min_cycle;Max_cycle;Signal;HPM_P1;HPM_P2
2023/05/05 00:06:56;;;;;;;0.63;0.45;;;;;;;11.32;55.18;101583.09;15467161;28;20149;-49
2023/05/05 00:14:28;;;;;;;1.63;0.65;;;;;;;11.29;55.40;101575.47;15487915;28;20054;-48
2023/05/05 00:22:02;;;;;;;0.77;0.50;;;;;;;11.44;55.78;101566.25;15466711;28;20054;-50
2023/05/05 00:29:36;;;;;;;0.45;0.43;;;;;;;11.17;56.17;101573.28;15487294;28;20050;-51
2023/05/05 00:37:10;;;;;;;1.70;0.93;;;;;;;11.16;56.41;101560.03;15471424;28;20384;-51
2023/05/05 00:44:43;;;;;;;0.68;0.57;;;;;;;11.05;56.53;101561.41;15489254;28;20125;-51
2023/05/05 00:52:17;;;;;;;1.27;0.73;;;;;;;10.82;57.71;101560.75;15487182;28;20097;-50
2023/05/05 00:59:51;;;;;;;1.55;0.38;;;;;;;10.73;57.67;101534.03;15480275;28;20496;-50
2023/05/05 01:07:36;;;;;;;0.70;0.63;;;;;;;10.76;58.06;101550.78;15485249;28;20043;-56
2023/05/05 01:15:17;;;;;;;0.70;0.32;;;;;;;10.70;58.07;101545.16;15468862;28;20405;-52
2023/05/05 01:22:56;;;;;;;1.98;1.13;;;;;;;10.27;59.04;101538.91;15481103;28;20138;-51
2023/05/05 01:30:50;;;;;;;0.63;0.57;;;;;;;10.35;59.06;101544.16;15455314;28;20487;-54
2023/05/05 01:38:28;;;;;;;1.20;0.67;;;;;;;10.12;59.27;101530.03;15497023;28;20048;-49
2023/05/05 01:46:03;;;;;;;1.52;0.57;;;;;;;10.20;58.93;101536.09;15489021;28;20420;-49
2023/05/05 01:53:39;;;;;;;1.42;1.08;;;;;;;10.14;59.37;101541.41;15479186;28;20046;-52
2023/05/05 02:01:13;;;;;;;2.08;1.10;;;;;;;10.07;59.66;101532.41;15486314;28;20482;-50
2023/05/05 02:08:49;;;;;;;3.35;0.93;;;;;;;10.53;58.39;101529.47;15495147;28;20050;-50
2023/05/05 02:16:23;;;;;;;2.47;0.30;;;;;;;9.94;59.14;101541.16;15485366;28;20058;-50
2023/05/05 02:23:58;;;;;;;0.75;0.40;;;;;;;9.87;59.49;101540.22;15495127;28;20077;-50
2023/05/05 02:31:34;;;;;;;1.30;0.55;;;;;;;9.87;59.60;101532.19;15482818;28;20046;-50
2023/05/05 02:39:13;;;;;;;0.40;0.40;;;;;;;9.56;60.36;101533.22;15489957;28;20638;-53
2023/05/05 02:46:47;;;;;;;1.65;0.85;;;;;;;10.03;59.21;101532.00;15486852;28;20460;-53
2023/05/05 02:54:22;;;;;;;1.27;0.80;;;;;;;10.13;58.80;101535.19;15477541;28;20048;-55
2023/05/05 03:02:06;;;;;;;1.08;0.70;;;;;;;9.89;59.41;101540.88;15508374;28;20488;-50
2023/05/05 03:09:49;;;;;;;0.60;0.55;;;;;;;10.14;58.52;101542.22;15490355;28;20114;-53
2023/05/05 03:17:24;;;;;;;1.13;0.47;;;;;;;9.53;60.43;101536.25;15480222;28;20070;-52
2023/05/05 03:24:58;;;;;;;1.38;0.75;;;;;;;9.30;60.70;101525.59;15474356;28;20050;-52
2023/05/05 03:32:31;;;;;;;0.20;0.17;;;;;;;9.39;60.61;101537.06;15472350;28;20050;-53
2023/05/05 03:40:06;;;;;;;3.03;1.10;;;;;;;9.03;61.78;101528.84;15473535;28;20085;-55
2023/05/05 03:47:39;;;;;;;0.65;0.55;;;;;;;8.94;62.48;101520.88;15477216;28;20432;-54
2023/05/05 03:55:14;;;;;;;2.53;1.45;;;;;;;8.68;63.13;101520.44;15473061;28;20596;-53
2023/05/05 04:02:47;;;;;;;1.40;0.63;;;;;;;8.77;62.63;101522.06;15472542;28;20053;-49
2023/05/05 04:10:24;;;;;;;2.97;0.90;;;;;;;9.17;61.32;101514.66;15472631;28;20100;-49
2023/05/05 04:17:57;;;;;;;0.68;0.40;;;;;;;8.98;61.75;101520.53;15472574;28;20057;-52
2023/05/05 04:25:34;;;;;;;1.42;0.95;;;;;;;9.02;61.92;101525.34;15489066;28;20069;-50
2023/05/05 04:33:07;;;;;;;0.93;0.55;;;;;;;9.23;61.42;101530.00;15487311;28;20043;-53
2023/05/05 04:40:41;;;;;;;2.25;1.38;;;;;;;9.30;61.24;101538.16;15488929;28;20069;-53
2023/05/05 04:48:15;;;;;;;5.82;0.88;;;;;;;9.45;60.55;101552.41;15488456;28;20479;-51
2023/05/05 04:55:53;;;;;;;1.38;0.43;;;;;;;9.76;59.81;101554.09;15485657;28;20046;-55
2023/05/05 05:03:26;;;;;;;2.53;1.25;;;;;;;10.03;58.78;101552.63;15488598;28;20039;-53
2023/05/05 05:11:01;;;;;;;6.55;0.82;;;;;;;10.44;57.54;101555.59;15496070;28;20508;-53
2023/05/05 05:18:36;;;;;;;1.67;1.05;;;;;;;10.70;57.29;101555.06;15496540;28;20623;-51
2023/05/05 05:26:10;;;;;;;1.93;0.57;;;;;;;11.14;56.15;101576.34;15499253;28;20060;-56
2023/05/05 05:33:45;;;;;;;1.20;0.63;;;;;;;11.60;54.49;101564.28;15498772;28;20041;-51
2023/05/05 05:41:21;;;;;;;1.92;1.30;;;;;;;12.05;53.54;101564.81;15498248;28;20050;-51
2023/05/05 05:48:54;;;;;;;1.40;0.77;;;;;;;12.33;51.99;101570.09;15498287;28;20038;-53
2023/05/05 05:56:29;;;;;;;0.75;0.68;;;;;;;14.03;47.90;101567.69;15496910;28;20042;-51
2023/05/05 06:04:02;;;;;;;0.28;0.28;;;;;;;14.54;46.40;101568.72;15496597;28;20030;-49
2023/05/05 06:11:36;;;;;;;0.88;0.57;;;;;;;14.44;46.00;101565.63;15480225;28;20536;-55
2023/05/05 06:19:10;;;;;;;2.60;1.38;;;;;;;13.38;48.59;101574.88;15497806;28;20097;-51
2023/05/05 06:26:45;;;;;;;0.75;0.60;;;;;;;13.06;49.22;101568.41;15495130;28;20133;-51
2023/05/05 06:34:18;;;;;;;1.88;1.08;;;;;;;13.20;49.13;101569.25;15495355;28;20134;-51
2023/05/05 06:41:52;;;;;;;2.95;1.27;;;;;;;12.93;49.89;101569.22;15496584;28;20048;-54
2023/05/05 06:49:24;;;;;;;3.13;1.42;;;;;;;14.14;47.82;101568.88;15495400;28;20658;-51
2023/05/05 06:56:58;;;;;;;0.77;0.50;;;;;;;13.82;48.48;101577.91;15487751;28;20042;-55
2023/05/05 07:04:31;;;;;;;1.90;0.90;;;;;;;14.90;44.82;101583.50;15491060;28;20046;-52
2023/05/05 07:12:06;;;;;;;1.10;0.70;;;;;;;15.64;42.99;101590.81;15493253;28;20403;-57
2023/05/05 07:19:39;;;;;;;1.80;0.77;;;;;;;16.33;42.20;101584.22;15490510;28;20420;-51
2023/05/05 07:27:13;;;;;;;3.83;1.08;;;;;;;16.30;40.67;101581.97;15489341;28;20455;-52
2023/05/05 07:34:46;;;;;;;2.30;1.00;;;;;;;17.82;39.06;101589.69;15488402;28;20050;-51
2023/05/05 07:42:20;;;;;;;0.50;0.50;;;;;;;18.36;38.41;101592.16;15474619;28;20104;-49
2023/05/05 07:49:54;;;;;;;2.95;0.88;;;;;;;18.24;38.13;101588.66;15491510;28;20039;-53
2023/05/05 07:57:28;;;;;;;5.43;1.13;;;;;;;17.45;38.82;101596.38;15493119;28;20134;-52
2023/05/05 08:05:01;;;;;;;6.65;1.30;;;;;;;17.85;38.81;101581.03;15490039;28;20061;-52
2023/05/05 08:12:35;;;;;;;15.15;1.23;;;;;;;18.76;37.96;101586.72;15490353;28;20049;-52
2023/05/05 08:20:09;;;;;;;5.50;1.00;;;;;;;18.17;38.16;101579.81;15469689;28;20046;-52
2023/05/05 08:27:44;;;;;;;3.70;0.80;;;;;;;18.10;37.25;101569.91;15474371;28;20503;-50
2023/05/05 08:35:18;;;;;;;1.42;0.90;;;;;;;18.85;37.36;101568.94;15493645;28;20052;-50
2023/05/05 08:42:52;;;;;;;3.05;0.80;;;;;;;19.04;36.39;101560.53;15494261;28;20096;-49
2023/05/05 08:50:26;;;;;;;3.03;1.27;;;;;;;19.42;36.54;101562.50;15496395;28;20105;-53
2023/05/05 08:58:03;;;;;;;2.28;0.88;;;;;;;19.44;35.91;101576.69;15487865;28;20137;-50
2023/05/05 09:05:35;;;;;;;1.23;0.80;;;;;;;20.04;35.42;101583.28;15500158;28;20062;-53
2023/05/05 09:13:10;;;;;;;1.85;1.15;;;;;;;19.80;34.33;101574.50;15502294;28;20068;-49
2023/05/05 09:20:42;;;;;;;0.68;0.40;;;;;;;19.70;35.80;101566.22;15499542;28;20077;-52
2023/05/05 09:28:17;;;;;;;12.75;0.93;;;;;;;20.43;35.66;101558.69;15482243;28;20050;-49
2023/05/05 09:35:52;;;;;;;1.67;0.70;;;;;;;19.50;35.34;101551.19;15482809;28;20069;-50
2023/05/05 09:43:26;;;;;;;4.95;1.35;;;;;;;21.10;34.58;101550.88;15499088;28;20054;-56
2023/05/05 09:50:59;;;;;;;0.32;0.30;;;;;;;20.03;35.59;101546.22;15493795;28;20093;-54
2023/05/05 09:58:33;;;;;;;2.97;0.93;;;;;;;19.70;35.31;101566.22;15497498;28;20101;-53
2023/05/05 10:06:07;;;;;;;0.70;0.50;;;;;;;20.43;34.88;101550.50;15478265;28;20050;-56
2023/05/05 10:13:41;;;;;;;1.88;0.90;;;;;;;20.33;34.63;101549.31;15495552;28;20476;-53
2023/05/05 10:21:21;;;;;;;1.50;0.50;;;;;;;21.70;33.98;101551.59;15478586;28;20050;-54
2023/05/05 10:28:56;;;;;;;3.20;1.02;;;;;;;21.67;32.23;101538.47;15478037;28;20057;-55
2023/05/05 10:36:30;;;;;;;1.40;0.65;;;;;;;21.27;33.29;101537.09;15561104;23;20080;-52
2023/05/05 10:44:06;;;;;;;1.15;0.40;;;;;;;21.80;32.90;101532.50;15554273;28;20049;-50
2023/05/05 10:51:49;;;;;;;1.45;0.30;;;;;;;21.99;33.05;101524.66;15554544;28;20104;-53
2023/05/05 10:59:46;;;;;;;0.82;0.47;;;;;;;21.70;33.89;101515.25;15553801;28;20124;-50
2023/05/05 11:07:23;;;;;;;1.13;0.50;;;;;;;22.22;32.07;101504.28;15531274;28;20065;-52
2023/05/05 11:15:36;;;;;;;3.00;0.90;;;;;;;21.45;31.95;101510.47;15554305;28;20507;-51
2023/05/05 11:23:21;;;;;;;3.13;0.88;;;;;;;21.14;32.23;101477.47;15517405;28;20049;-52
2023/05/05 11:31:18;;;;;;;3.10;0.82;;;;;;;21.85;31.81;101483.34;15534153;28;20046;-52
2023/05/05 11:39:04;;;;;;;2.20;0.95;;;;;;;23.29;29.84;101465.19;15552413;28;20045;-51
2023/05/05 11:46:39;;;;;;;2.10;1.27;;;;;;;22.79;29.65;101447.69;15534408;28;20129;-53
2023/05/05 11:54:12;;;;;;;3.42;0.68;;;;;;;21.61;31.54;101452.09;15547888;28;20073;-51
2023/05/05 12:01:47;;;;;;;1.73;0.55;;;;;;;22.53;31.40;101453.19;15533297;28;20066;-51
2023/05/05 12:09:22;;;;;;;1.48;0.77;;;;;;;23.49;27.99;101437.69;15547088;28;20364;-50
2023/05/05 12:17:00;;;;;;;0.98;0.57;;;;;;;22.84;29.48;101434.00;15545796;28;20495;-52
2023/05/05 12:24:35;;;;;;;5.10;0.80;;;;;;;22.79;28.34;101423.88;15546580;28;20137;-53
2023/05/05 12:32:18;;;;;;;0.80;0.63;;;;;;;22.40;30.02;101409.94;15532599;28;20041;-50
2023/05/05 12:39:53;;;;;;;0.20;0.20;;;;;;;22.91;28.78;101418.97;15549217;28;20117;-50
2023/05/05 12:47:32;;;;;;;3.58;0.68;;;;;;;24.36;29.22;101409.81;15533008;28;20038;-51
2023/05/05 12:55:05;;;;;;;1.48;0.60;;;;;;;23.64;26.22;101404.81;15549585;28;20092;-52
2023/05/05 13:02:42;;;;;;;1.30;0.77;;;;;;;23.48;26.92;101391.41;15550035;28;20121;-50
2023/05/05 13:10:15;;;;;;;2.97;0.60;;;;;;;24.26;24.77;101391.53;15528831;28;20070;-51
2023/05/05 13:17:50;;;;;;;0.35;0.30;;;;;;;24.41;24.42;101382.38;15532537;28;20698;-50
2023/05/05 13:25:22;;;;;;;2.92;1.10;;;;;;;24.49;25.41;101375.47;15546465;28;20259;-50
2023/05/05 13:32:56;;;;;;;1.35;0.70;;;;;;;22.67;28.20;101366.69;15536463;28;20050;-51
2023/05/05 13:40:29;;;;;;;0.52;0.32;;;;;;;22.61;27.41;101356.03;15559043;28;20045;-50
2023/05/05 13:48:06;;;;;;;0.70;0.43;;;;;;;21.88;27.82;101343.41;15559173;28;20046;-56
2023/05/05 13:55:40;;;;;;;1.98;1.02;;;;;;;21.74;27.19;101334.09;15540944;28;20053;-52
2023/05/05 14:03:14;;;;;;;0.80;0.55;;;;;;;21.80;29.92;101330.28;15557959;28;20045;-51
2023/05/05 14:10:46;;;;;;;0.80;0.75;;;;;;;21.95;30.36;101315.81;15556148;28;20495;-51
2023/05/05 14:18:21;;;;;;;3.80;0.70;;;;;;;21.69;31.46;101312.25;15558854;28;20046;-55
2023/05/05 14:25:54;;;;;;;0.93;0.70;;;;;;;21.42;31.21;101306.16;15558272;28;20045;-55
2023/05/05 14:33:28;;;;;;;0.52;0.30;;;;;;;21.55;30.78;101297.47;15525980;28;20116;-55
2023/05/05 14:41:00;;;;;;;1.10;0.50;;;;;;;21.26;32.33;101288.88;15539127;28;20066;-55
2023/05/05 14:48:35;;;;;;;1.33;0.60;;;;;;;21.00;31.06;101301.63;15537556;28;20042;-52
2023/05/05 14:56:08;;;;;;;1.55;0.52;;;;;;;21.02;31.69;101307.59;15553280;28;20129;-50
2023/05/05 15:03:43;;;;;;;2.30;0.68;;;;;;;20.71;31.59;101298.47;15537425;28;20037;-51
2023/05/05 15:11:16;;;;;;;0.60;0.47;;;;;;;20.54;32.12;101285.81;15554990;28;20049;-53
2023/05/05 15:18:50;;;;;;;0.47;0.47;;;;;;;20.56;32.26;101282.81;15551150;28;20045;-55
2023/05/05 15:26:23;;;;;;;1.45;0.70;;;;;;;20.23;33.65;101270.28;15535273;28;20045;-50
2023/05/05 15:33:56;;;;;;;;;;;;;;;20.23;33.18;101268.38;15552251;28;20424;-51
2023/05/05 15:41:29;;;;;;;0.85;0.50;;;;;;;19.86;34.54;101273.81;15552335;28;19976;-51
2023/05/05 15:49:03;;;;;;;0.50;0.40;;;;;;;20.25;34.07;101268.97;15533845;28;20045;-49
2023/05/05 15:56:36;;;;;;;3.80;0.60;;;;;;;20.04;34.82;101264.44;15552519;28;20057;-55
2023/05/05 16:04:10;;;;;;;1.67;1.05;;;;;;;19.59;34.54;101261.03;15547208;28;20042;-51
2023/05/05 16:11:44;;;;;;;0.65;0.60;;;;;;;19.76;35.14;101273.72;15531619;28;20121;-54
2023/05/05 16:19:18;;;;;;;0.50;0.50;;;;;;;19.68;35.21;101260.56;15548600;28;20038;-53
2023/05/05 16:26:51;;;;;;;1.20;0.70;;;;;;;19.33;35.15;101257.19;15532547;28;20038;-53
2023/05/05 16:34:25;;;;;;;0.70;0.40;;;;;;;19.06;35.69;101261.78;15559962;23;20383;-54
2023/05/05 16:41:58;;;;;;;2.92;0.68;;;;;;;18.96;35.68;101259.78;15546147;28;20070;-52
2023/05/05 16:49:32;;;;;;;1.38;0.82;;;;;;;18.86;36.43;101265.09;15532583;28;20050;-54
2023/05/05 16:57:04;;;;;;;2.53;0.90;;;;;;;18.60;36.70;101251.13;15543621;28;20042;-54
2023/05/05 17:04:39;;;;;;;1.20;0.77;;;;;;;18.51;36.65;101244.47;15551236;28;20085;-54
2023/05/05 17:12:12;;;;;;;1.08;0.80;;;;;;;18.51;36.90;101241.78;15559147;28;20156;-53
2023/05/05 17:19:46;;;;;;;1.65;0.47;;;;;;;18.25;37.77;101248.72;15560381;28;20053;-58
2023/05/05 17:27:18;;;;;;;2.45;0.77;;;;;;;18.49;37.61;101243.06;15556754;28;20054;-57
2023/05/05 17:34:52;;;;;;;0.40;0.40;;;;;;;17.80;38.71;101238.75;15559140;28;20068;-56
2023/05/05 17:42:25;;;;;;;7.55;0.90;;;;;;;17.79;38.58;101223.53;15558636;28;20108;-55
2023/05/05 17:50:00;;;;;;;2.28;1.05;;;;;;;17.51;39.10;101250.72;15557720;28;20310;-56
2023/05/05 17:57:32;;;;;;;1.30;0.47;;;;;;;17.70;39.43;101241.28;15558367;28;20108;-57
2023/05/05 18:05:12;;;;;;;1.15;0.88;;;;;;;17.56;39.87;101240.75;15556652;28;20437;-55
2023/05/05 18:12:44;;;;;;;0.80;0.55;;;;;;;17.41;40.60;101237.78;15555277;28;20470;-57
2023/05/05 18:20:19;;;;;;;1.40;0.63;;;;;;;17.27;40.90;101239.16;15552076;28;20229;-55
2023/05/05 18:27:51;;;;;;;2.72;1.00;;;;;;;17.06;42.34;101243.34;15555074;28;20041;-56
2023/05/05 18:35:25;;;;;;;0.53;0.53;;;;;;;16.89;43.28;101258.72;15555724;28;20102;-55
2023/05/05 18:42:58;;;;;;;1.15;0.93;;;;;;;16.73;43.97;101271.13;15542947;28;20438;-54
2023/05/05 18:50:32;;;;;;;2.97;1.13;;;;;;;16.22;48.78;101288.88;15550931;28;20489;-55
2023/05/05 18:58:05;;;;;;;1.70;0.82;;;;;;;16.11;48.38;101277.00;15543383;28;20129;-54
2023/05/05 19:05:39;;;;;;;3.70;1.07;;;;;;;16.03;47.58;101272.72;15554532;28;20070;-55
2023/05/05 19:13:12;;;;;;;1.00;0.55;;;;;;;15.82;48.12;101273.28;15544520;28;20304;-52
2023/05/05 19:20:46;;;;;;;4.03;1.50;;;;;;;15.90;47.75;101293.78;15519219;28;20308;-54
2023/05/05 19:28:19;;;;;;;1.30;0.80;;;;;;;15.69;47.91;101298.66;15542183;28;20065;-55
2023/05/05 19:35:53;;;;;;;1.25;1.08;;;;;;;15.74;47.73;101306.94;15553614;28;20038;-53
2023/05/05 19:43:25;;;;;;;2.40;1.50;;;;;;;15.47;48.26;101298.31;15541725;28;20068;-56
2023/05/05 19:51:00;;;;;;;0.57;0.43;;;;;;;15.33;48.63;101307.66;15568904;28;20088;-51
2023/05/05 19:58:51;;;;;;;2.83;0.95;;;;;;;15.24;48.47;101306.31;15546556;28;20078;-55
2023/05/05 20:06:26;;;;;;;1.73;0.70;;;;;;;15.13;48.57;101317.91;15546792;28;20120;-50
2023/05/05 20:13:59;;;;;;;1.48;0.90;;;;;;;15.15;48.75;101313.09;15538726;28;20067;-49
2023/05/05 20:21:33;;;;;;;0.52;0.30;;;;;;;14.70;49.47;101322.31;15544290;28;20671;-54
2023/05/05 20:29:06;;;;;;;1.15;0.68;;;;;;;14.81;49.39;101315.34;15548737;28;20104;-52
2023/05/05 20:36:40;;;;;;;1.87;0.57;;;;;;;14.81;49.10;101318.03;15547594;28;20050;-54
2023/05/05 20:44:13;;;;;;;1.77;1.15;;;;;;;14.79;49.24;101321.00;15547082;28;20077;-55
2023/05/05 20:51:47;;;;;;;;;;;;;;;14.49;50.41;101323.53;15568467;28;20423;-50
2023/05/05 20:59:20;;;;;;;2.50;1.40;;;;;;;14.21;51.16;101336.63;15561705;28;19968;-51
2023/05/05 21:06:54;;;;;;;6.83;0.97;;;;;;;14.18;51.80;101332.53;15561979;28;20049;-52
2023/05/05 21:14:28;;;;;;;9.07;1.30;;;;;;;13.88;53.62;101326.09;15560626;28;20037;-49
2023/05/05 21:22:01;;;;;;;;;;;;;;;13.28;56.88;101300.25;15556323;28;20050;-54
2023/05/05 21:29:36;;;;;;;0.82;0.65;;;;;;;13.16;58.07;101315.44;15537230;28;20178;-51
2023/05/05 21:37:10;;;;;;;1.00;0.50;;;;;;;13.14;58.16;101320.19;15556970;28;20046;-52
2023/05/05 21:44:45;;;;;;;3.47;1.48;;;;;;;13.24;58.77;101326.00;15556470;28;20042;-51
2023/05/05 21:52:19;;;;;;;4.73;1.93;;;;;;;13.03;59.11;101335.16;15557686;28;20132;-49
2023/05/05 21:59:54;;;;;;;3.15;1.23;;;;;;;12.93;60.80;101342.03;15555822;28;20045;-50
2023/05/05 22:07:28;;;;;;;0.53;0.53;;;;;;;12.88;60.36;101352.63;15552445;28;20125;-51
2023/05/05 22:15:01;;;;;;;2.53;1.02;;;;;;;12.47;62.64;101340.25;15551783;28;20042;-53
2023/05/05 22:22:35;;;;;;;1.13;1.03;;;;;;;12.20;63.50;101344.78;15549859;28;20042;-51
2023/05/05 22:30:09;;;;;;;1.90;1.02;;;;;;;12.15;64.00;101342.72;15555526;28;20085;-52
2023/05/05 22:37:43;;;;;;;1.15;0.82;;;;;;;12.22;64.92;101346.25;15563761;23;20080;-53
2023/05/05 22:45:16;;;;;;;1.20;0.98;;;;;;;12.06;65.66;101327.78;15527693;28;20465;-52
2023/05/05 22:52:50;;;;;;;2.73;0.83;;;;;;;11.56;68.30;101315.66;15548848;28;20049;-54
2023/05/05 23:00:24;;;;;;;1.35;0.90;;;;;;;11.13;70.21;101295.25;15550016;28;20486;-52
2023/05/05 23:08:00;;;;;;;0.73;0.73;;;;;;;11.20;69.70;101306.88;15548558;28;20108;-54
2023/05/05 23:15:32;;;;;;;0.85;0.68;;;;;;;10.89;71.81;101299.28;15559984;28;20308;-53
2023/05/05 23:23:06;;;;;;;1.23;0.90;;;;;;;10.64;73.85;101282.81;15569072;28;20033;-54
2023/05/05 23:30:39;;;;;;;6.43;1.55;;;;;;;10.81;73.89;101290.53;15529378;28;20557;-52
2023/05/05 23:38:13;;;;;;;1.50;0.70;;;;;;;10.44;75.07;101290.75;15546585;28;20050;-54
2023/05/05 23:45:46;;;;;;;0.70;0.70;;;;;;;10.72;74.16;101298.78;15527926;28;20343;-53
2023/05/05 23:53:20;;;;;;;0.40;0.20;;;;;;;10.63;74.12;101307.16;15526619;28;20077;-52
